createdAt,value
2023-05-10T00:00:45.028Z,100468.81
2023-05-10T00:03:47.251Z,100467.75
2023-05-10T00:06:49.486Z,100459.88
2023-05-10T00:09:52.572Z,100459.88
2023-05-10T00:12:54.750Z,100457.13
2023-05-10T00:15:56.978Z,100460.38
2023-05-10T00:19:00.501Z,100453.59
2023-05-10T00:22:02.624Z,100458.44
2023-05-10T00:25:05.328Z,100460.03
2023-05-10T00:28:07.650Z,100461.63
2023-05-10T00:31:09.810Z,100458.66
2023-05-10T00:34:12.067Z,100463.22
2023-05-10T00:37:14.275Z,100454.84
2023-05-10T00:40:16.941Z,100454.00
2023-05-10T00:43:24.401Z,100458.00
2023-05-10T00:46:27.025Z,100462.59
2023-05-10T00:49:29.593Z,100455.28
2023-05-10T00:52:32.054Z,100446.59
2023-05-10T00:55:34.838Z,100453.66
2023-05-10T00:58:37.257Z,100446.34
2023-05-10T01:01:39.934Z,100449.28
2023-05-10T01:04:42.247Z,100447.41
2023-05-10T01:07:44.418Z,100446.03
2023-05-10T01:10:46.665Z,100453.78
2023-05-10T01:13:53.907Z,100440.81
2023-05-10T01:16:56.124Z,100444.63
2023-05-10T01:19:58.333Z,100450.84
2023-05-10T01:23:18.721Z,100444.94
2023-05-10T01:26:36.075Z,100446.03
2023-05-10T01:30:21.854Z,100442.72
2023-05-10T01:33:28.944Z,100441.38
2023-05-10T01:36:34.855Z,100439.50
2023-05-10T01:40:16.205Z,100439.75
2023-05-10T01:43:25.220Z,100441.38
2023-05-10T01:46:33.825Z,100444.94
2023-05-10T01:49:41.307Z,100437.66
2023-05-10T01:52:45.722Z,100431.78
2023-05-10T01:55:53.511Z,100429.88
2023-05-10T01:58:56.428Z,100425.56
2023-05-10T02:02:00.062Z,100436.63
2023-05-10T02:05:04.789Z,100431.78
2023-05-10T02:08:08.136Z,100424.25
2023-05-10T02:11:14.375Z,100422.38
2023-05-10T02:14:16.793Z,100418.03
2023-05-10T02:17:19.597Z,100414.28
2023-05-10T02:20:23.570Z,100415.38
2023-05-10T02:23:26.717Z,100412.44
2023-05-10T02:26:29.044Z,100416.50
2023-05-10T02:29:32.380Z,100411.66
2023-05-10T02:32:35.333Z,100407.63
2023-05-10T02:35:38.781Z,100407.63
2023-05-10T02:38:41.450Z,100416.81
2023-05-10T02:41:44.408Z,100422.19
2023-05-10T02:44:47.401Z,100423.84
2023-05-10T02:47:50.985Z,100408.97
2023-05-10T02:50:54.025Z,100419.50
2023-05-10T02:53:56.805Z,100411.41
2023-05-10T02:57:03.864Z,100423.56
2023-05-10T03:00:06.945Z,100420.06
2023-05-10T03:03:09.357Z,100420.06
2023-05-10T03:06:11.567Z,100417.91
2023-05-10T03:09:16.425Z,100416.81
2023-05-10T03:12:43.857Z,100424.09
2023-05-10T03:16:11.488Z,100419.25
2023-05-10T03:19:23.982Z,100417.34
2023-05-10T03:22:30.878Z,100409.78
2023-05-10T03:25:33.482Z,100407.59
2023-05-10T03:28:37.773Z,100414.63
2023-05-10T03:31:41.399Z,100414.88
2023-05-10T03:34:46.585Z,100404.88
2023-05-10T03:37:48.824Z,100415.41
2023-05-10T03:40:51.055Z,100413.47
2023-05-10T03:43:53.233Z,100411.28
2023-05-10T03:46:55.507Z,100423.97
2023-05-10T03:49:58.095Z,100423.41
2023-05-10T03:53:00.304Z,100422.03
2023-05-10T03:56:03.863Z,100419.88
2023-05-10T03:59:08.451Z,100419.59
2023-05-10T04:02:11.028Z,100418.28
2023-05-10T04:05:13.622Z,100422.06
2023-05-10T04:08:17.406Z,100418.31
2023-05-10T04:11:19.635Z,100416.72
2023-05-10T04:14:21.874Z,100408.63
2023-05-10T04:17:24.058Z,100408.38
2023-05-10T04:20:26.250Z,100411.38
2023-05-10T04:23:28.769Z,100416.50
2023-05-10T04:26:31.044Z,100413.25
2023-05-10T04:29:33.143Z,100414.63
2023-05-10T04:32:35.329Z,100414.38
2023-05-10T04:35:37.878Z,100413.03
2023-05-10T04:38:40.103Z,100421.66
2023-05-10T04:41:42.306Z,100413.81
2023-05-10T04:44:44.495Z,100418.44
2023-05-10T04:47:46.624Z,100412.47
2023-05-10T04:50:48.808Z,100418.38
2023-05-10T04:54:01.578Z,100418.91
2023-05-10T04:57:07.205Z,100415.97
2023-05-10T05:00:09.983Z,100418.94
2023-05-10T05:03:12.268Z,100424.47
2023-05-10T05:06:14.455Z,100423.97
2023-05-10T05:09:17.339Z,100428.53
2023-05-10T05:12:19.569Z,100425.56
2023-05-10T05:15:21.800Z,100434.72
2023-05-10T05:18:23.950Z,100432.06
2023-05-10T05:21:27.909Z,100435.34
2023-05-10T05:24:30.094Z,100438.34
2023-05-10T05:27:32.355Z,100429.44
2023-05-10T05:30:34.477Z,100435.47
2023-05-10T05:33:36.812Z,100432.25
2023-05-10T05:36:41.792Z,100436.31
2023-05-10T05:39:44.263Z,100435.53
2023-05-10T05:42:46.407Z,100449.31
2023-05-10T05:45:48.671Z,100452.00
2023-05-10T05:48:50.910Z,100447.97
2023-05-10T05:51:53.054Z,100453.38
2023-05-10T05:54:55.531Z,100452.84
2023-05-10T05:57:57.884Z,100459.63
2023-05-10T06:01:00.029Z,100459.88
2023-05-10T06:04:02.317Z,100459.31
2023-05-10T06:07:04.897Z,100462.59
2023-05-10T06:10:07.749Z,100467.19
2023-05-10T06:13:10.070Z,100459.91
2023-05-10T06:16:12.256Z,100451.22
2023-05-10T06:19:14.380Z,100450.44
2023-05-10T06:22:16.517Z,100463.13
2023-05-10T06:25:19.433Z,100457.94
2023-05-10T06:28:22.069Z,100463.88
2023-05-10T06:31:24.308Z,100465.50
2023-05-10T06:34:26.670Z,100459.28
2023-05-10T06:37:29.186Z,100475.00
2023-05-10T06:40:31.398Z,100465.78
2023-05-10T06:43:33.638Z,100466.59
2023-05-10T06:46:36.204Z,100473.63
2023-05-10T06:49:38.492Z,100471.97
2023-05-10T06:52:44.195Z,100467.88
2023-05-10T06:55:46.510Z,100462.44
2023-05-10T06:58:49.491Z,100467.34
2023-05-10T07:01:52.118Z,100455.41
2023-05-10T07:04:54.522Z,100460.53
2023-05-10T07:07:56.726Z,100463.78
2023-05-10T07:11:08.073Z,100465.66
2023-05-10T07:14:10.551Z,100462.44
2023-05-10T07:17:12.792Z,100455.91
2023-05-10T07:20:15.419Z,100464.84
2023-05-10T07:23:18.768Z,100458.91
2023-05-10T07:26:21.982Z,100457.53
2023-05-10T07:29:24.255Z,100453.19
2023-05-10T07:32:26.566Z,100453.44
2023-05-10T07:35:28.934Z,100446.91
2023-05-10T07:38:31.067Z,100443.06
2023-05-10T07:41:35.101Z,100447.91
2023-05-10T07:44:37.840Z,100438.44
2023-05-10T07:47:40.106Z,100441.69
2023-05-10T07:50:42.307Z,100444.88
2023-05-10T07:53:44.399Z,100445.13
2023-05-10T07:56:47.848Z,100450.78
2023-05-10T07:59:50.019Z,100450.22
2023-05-10T08:02:52.421Z,100451.75
2023-05-10T08:05:54.618Z,100452.81
2023-05-10T08:08:57.097Z,100459.34
2023-05-10T08:12:00.296Z,100454.72
2023-05-10T08:15:02.504Z,100447.38
2023-05-10T08:18:05.378Z,100444.41
2023-05-10T08:21:07.970Z,100444.91
2023-05-10T08:24:10.176Z,100448.50
2023-05-10T08:27:14.562Z,100451.19
2023-05-10T08:30:16.629Z,100456.03
2023-05-10T08:33:19.644Z,100445.16
2023-05-10T08:36:22.969Z,100447.34
2023-05-10T08:39:30.396Z,100442.97
2023-05-10T08:42:36.338Z,100445.09
2023-05-10T08:45:40.347Z,100447.81
2023-05-10T08:48:43.511Z,100443.72
2023-05-10T08:51:52.095Z,100455.88
2023-05-10T08:54:54.334Z,100452.63
2023-05-10T08:57:56.566Z,100447.09
2023-05-10T09:00:59.035Z,100454.97
2023-05-10T09:04:01.335Z,100446.75
2023-05-10T09:07:03.734Z,100435.59
2023-05-10T09:10:14.313Z,100434.38
2023-05-10T09:13:31.939Z,100442.19
2023-05-10T09:16:34.176Z,100440.78
2023-05-10T09:19:36.393Z,100436.63
2023-05-10T09:22:39.313Z,100437.75
2023-05-10T09:25:42.613Z,100435.06
2023-05-10T09:28:59.199Z,100434.81
2023-05-10T09:32:01.716Z,100436.94
2023-05-10T09:35:25.856Z,100429.84
2023-05-10T09:38:29.298Z,100421.75
2023-05-10T09:41:31.551Z,100419.56
2023-05-10T09:44:34.869Z,100426.81
2023-05-10T09:47:37.229Z,100417.34
2023-05-10T09:50:39.785Z,100428.19
2023-05-10T09:53:42.043Z,100425.63
2023-05-10T09:56:44.194Z,100411.41
2023-05-10T09:59:46.617Z,100408.13
2023-05-10T10:02:54.990Z,100404.91
2023-05-10T10:05:57.816Z,100409.97
2023-05-10T10:08:59.992Z,100398.31
2023-05-10T10:12:03.418Z,100393.66
2023-05-10T10:15:06.496Z,100395.88
2023-05-10T10:18:09.126Z,100392.47
2023-05-10T10:21:12.047Z,100384.97
2023-05-10T10:24:14.214Z,100384.31
2023-05-10T10:27:40.491Z,100388.28
2023-05-10T10:30:44.594Z,100383.56
2023-05-10T10:34:08.084Z,100383.78
2023-05-10T10:37:12.530Z,100378.34
2023-05-10T10:40:44.204Z,100379.25
2023-05-10T10:43:46.413Z,100374.63
2023-05-10T10:47:04.565Z,100379.09
2023-05-10T10:50:09.241Z,100371.63
2023-05-10T10:53:13.188Z,100378.59
2023-05-10T10:56:16.508Z,100365.59
2023-05-10T10:59:28.087Z,100371.38
2023-05-10T11:02:35.425Z,100359.97
2023-05-10T11:05:40.521Z,100360.50
2023-05-10T11:08:46.955Z,100352.34
2023-05-10T11:11:53.685Z,100350.63
2023-05-10T11:14:58.735Z,100338.56
2023-05-10T11:18:01.254Z,100345.84
2023-05-10T11:21:05.981Z,100350.59
2023-05-10T11:24:14.739Z,100331.75
2023-05-10T11:27:16.944Z,100333.38
2023-05-10T11:30:19.566Z,100330.94
2023-05-10T11:33:22.054Z,100323.69
2023-05-10T11:36:28.848Z,100329.25
2023-05-10T11:39:32.708Z,100319.75
2023-05-10T11:42:34.939Z,100314.94
2023-05-10T11:45:37.573Z,100321.38
2023-05-10T11:48:40.723Z,100320.34
2023-05-10T11:51:44.477Z,100320.34
2023-05-10T11:54:53.732Z,100327.59
2023-05-10T11:57:58.043Z,100319.53
2023-05-10T12:01:00.974Z,100322.03
2023-05-10T12:04:03.643Z,100301.47
2023-05-10T12:07:10.532Z,100322.63
2023-05-10T12:10:27.574Z,100323.13
2023-05-10T12:13:29.763Z,100324.81
2023-05-10T12:16:32.311Z,100324.81
2023-05-10T12:19:40.932Z,100325.66
2023-05-10T12:22:50.874Z,100324.03
2023-05-10T12:25:54.935Z,100320.81
2023-05-10T12:29:13.327Z,100316.97
2023-05-10T12:32:15.490Z,100311.22
2023-05-10T12:35:17.746Z,100301.84
2023-05-10T12:38:30.441Z,100301.56
2023-05-10T12:41:32.688Z,100294.00
2023-05-10T12:44:34.890Z,100301.84
2023-05-10T12:47:37.228Z,100296.41
2023-05-10T12:50:39.423Z,100295.53
2023-05-10T12:53:45.631Z,100282.94
2023-05-10T12:56:48.892Z,100283.44
2023-05-10T13:00:05.382Z,100271.75
2023-05-10T13:03:19.697Z,100279.22
2023-05-10T13:06:36.116Z,100251.13
2023-05-10T13:09:42.025Z,100259.50
2023-05-10T13:12:44.382Z,100256.28
2023-05-10T13:15:46.525Z,100241.06
2023-05-10T13:18:48.705Z,100262.81
2023-05-10T13:21:50.855Z,100247.00
2023-05-10T13:24:55.019Z,100249.66
2023-05-10T13:27:57.180Z,100244.22
2023-05-10T13:31:00.914Z,100229.97
2023-05-10T13:34:03.704Z,100239.03
2023-05-10T13:37:05.910Z,100226.50
2023-05-10T13:40:08.578Z,100219.22
2023-05-10T13:43:11.074Z,100227.53
2023-05-10T13:46:14.887Z,100218.03
2023-05-10T13:50:06.829Z,100228.94
2023-05-10T13:53:50.385Z,100212.91
2023-05-10T13:57:00.999Z,100194.69
2023-05-10T14:00:03.651Z,100205.06
2023-05-10T14:03:12.102Z,100193.19
2023-05-10T14:06:14.679Z,100210.91
2023-05-10T14:09:17.574Z,100216.28
2023-05-10T14:12:19.707Z,100198.84
2023-05-10T14:15:22.037Z,100193.38
2023-05-10T14:18:24.187Z,100197.97
2023-05-10T14:21:26.337Z,100193.00
2023-05-10T14:24:28.664Z,100184.03
2023-05-10T14:27:31.391Z,100196.41
2023-05-10T14:30:36.399Z,100191.94
2023-05-10T14:33:38.530Z,100183.38
2023-05-10T14:36:41.408Z,100183.84
2023-05-10T14:39:43.721Z,100189.44
2023-05-10T14:42:45.837Z,100178.47
2023-05-10T14:45:48.580Z,100190.47
2023-05-10T14:48:50.797Z,100185.75
2023-05-10T14:51:53.196Z,100190.66
2023-05-10T14:54:55.386Z,100196.88
2023-05-10T14:57:57.502Z,100201.56
2023-05-10T15:00:59.685Z,100192.63
2023-05-10T15:04:02.221Z,100205.03
2023-05-10T15:07:05.100Z,100197.50
2023-05-10T15:10:07.855Z,100197.06
2023-05-10T15:13:09.959Z,100197.69
2023-05-10T15:16:12.124Z,100183.06
2023-05-10T15:19:14.292Z,100184.50
2023-05-10T15:22:16.504Z,100191.94
2023-05-10T15:25:19.249Z,100197.19
2023-05-10T15:28:21.586Z,100194.44
2023-05-10T15:31:23.772Z,100181.72
2023-05-10T15:34:25.967Z,100192.03
2023-05-10T15:37:28.423Z,100184.56
2023-05-10T15:40:30.556Z,100177.13
2023-05-10T15:43:32.680Z,100176.41
2023-05-10T15:46:34.945Z,100180.66
2023-05-10T15:49:37.279Z,100169.38
2023-05-10T15:52:39.472Z,100172.09
2023-05-10T15:55:41.637Z,100183.41
2023-05-10T15:58:44.027Z,100173.91
2023-05-10T16:01:46.287Z,100173.34
2023-05-10T16:04:48.551Z,100172.72
2023-05-10T16:07:50.714Z,100181.31
2023-05-10T16:10:52.910Z,100172.16
2023-05-10T16:13:55.129Z,100183.66
2023-05-10T16:16:57.354Z,100182.16
2023-05-10T16:19:59.602Z,100183.19
2023-05-10T16:23:05.911Z,100179.41
2023-05-10T16:26:08.817Z,100183.72
2023-05-10T16:29:10.989Z,100168.88
2023-05-10T16:32:13.090Z,100174.84
2023-05-10T16:35:15.473Z,100173.44
2023-05-10T16:38:17.957Z,100181.63
2023-05-10T16:41:20.077Z,100185.53
2023-05-10T16:44:25.184Z,100195.09
2023-05-10T16:47:28.065Z,100191.97
2023-05-10T16:50:30.425Z,100191.88
2023-05-10T16:53:32.549Z,100190.88
2023-05-10T16:56:34.684Z,100189.66
2023-05-10T16:59:36.835Z,100197.94
2023-05-10T17:02:39.358Z,100198.31
2023-05-10T17:05:42.104Z,100196.91
2023-05-10T17:08:44.755Z,100202.72
2023-05-10T17:11:47.107Z,100209.16
2023-05-10T17:14:49.257Z,100207.69
2023-05-10T17:17:51.552Z,100209.69
2023-05-10T17:20:53.706Z,100211.25
2023-05-10T17:23:55.925Z,100201.66
2023-05-10T17:26:58.084Z,100217.84
2023-05-10T17:30:00.623Z,100214.16
2023-05-10T17:33:02.762Z,100219.69
2023-05-10T17:36:05.005Z,100217.34
2023-05-10T17:39:07.097Z,100219.38
2023-05-10T17:42:09.217Z,100232.13
2023-05-10T17:45:11.784Z,100227.06
2023-05-10T17:48:14.103Z,100222.06
2023-05-10T17:51:16.276Z,100231.09
2023-05-10T17:54:18.431Z,100233.06
2023-05-10T17:57:20.819Z,100232.91
2023-05-10T18:00:23.099Z,100230.00
2023-05-10T18:03:25.299Z,100235.81
2023-05-10T18:06:27.498Z,100229.13
2023-05-10T18:09:30.117Z,100235.94
2023-05-10T18:12:32.250Z,100242.78
2023-05-10T18:15:35.381Z,100240.41
2023-05-10T18:18:38.190Z,100245.06
2023-05-10T18:21:40.362Z,100242.41
2023-05-10T18:24:42.814Z,100247.34
2023-05-10T18:27:44.998Z,100249.81
2023-05-10T18:30:47.164Z,100246.13
2023-05-10T18:33:49.267Z,100261.28
2023-05-10T18:36:52.115Z,100264.56
2023-05-10T18:39:54.510Z,100254.34
2023-05-10T18:42:56.743Z,100258.16
2023-05-10T18:45:58.886Z,100260.16
2023-05-10T18:49:01.200Z,100258.00
2023-05-10T18:52:03.414Z,100262.91
2023-05-10T18:55:06.656Z,100276.75
2023-05-10T18:58:09.070Z,100277.88
2023-05-10T19:01:11.308Z,100270.34
2023-05-10T19:04:13.511Z,100277.41
2023-05-10T19:07:15.862Z,100280.94
2023-05-10T19:10:17.998Z,100289.09
2023-05-10T19:13:20.269Z,100287.47
2023-05-10T19:16:23.373Z,100289.09
2023-05-10T19:19:26.205Z,100290.16
2023-05-10T19:22:44.984Z,100283.72
2023-05-10T19:25:50.610Z,100292.34
2023-05-10T19:28:52.813Z,100297.25
2023-05-10T19:31:55.129Z,100284.28
2023-05-10T19:34:57.365Z,100285.09
2023-05-10T19:37:59.562Z,100291.38
2023-05-10T19:41:02.031Z,100288.94
2023-05-10T19:44:04.149Z,100283.53
2023-05-10T19:47:07.783Z,100288.13
2023-05-10T19:50:10.341Z,100280.84
2023-05-10T19:53:12.603Z,100287.88
2023-05-10T19:56:14.804Z,100285.97
2023-05-10T19:59:16.906Z,100288.69
2023-05-10T20:02:19.118Z,100278.94
2023-05-10T20:05:21.831Z,100275.75
2023-05-10T20:08:24.672Z,100281.69
2023-05-10T20:11:26.810Z,100285.19
2023-05-10T20:14:28.932Z,100284.94
2023-05-10T20:17:31.275Z,100285.22
2023-05-10T20:20:33.592Z,100285.47
2023-05-10T20:23:35.806Z,100284.41
2023-05-10T20:26:38.024Z,100279.56
2023-05-10T20:29:40.137Z,100283.34
2023-05-10T20:32:42.410Z,100287.69
2023-05-10T20:35:44.615Z,100288.81
2023-05-10T20:38:46.787Z,100291.75
2023-05-10T20:41:49.490Z,100292.03
2023-05-10T20:44:51.756Z,100281.50
2023-05-10T20:47:57.077Z,100288.50
2023-05-10T20:51:01.203Z,100289.09
2023-05-10T20:54:04.323Z,100280.69
2023-05-10T20:57:06.517Z,100288.56
2023-05-10T21:00:09.544Z,100280.97
2023-05-10T21:03:11.764Z,100285.06
2023-05-10T21:06:14.001Z,100287.50
2023-05-10T21:09:17.501Z,100278.84
2023-05-10T21:12:19.655Z,100275.59
2023-05-10T21:15:25.617Z,100275.59
2023-05-10T21:18:28.038Z,100271.56
2023-05-10T21:21:30.320Z,100274.81
2023-05-10T21:24:33.244Z,100274.03
2023-05-10T21:27:35.531Z,100275.63
2023-05-10T21:30:37.706Z,100284.84
2023-05-10T21:33:39.836Z,100284.84
2023-05-10T21:36:42.027Z,100271.34
2023-05-10T21:39:44.509Z,100286.22
2023-05-10T21:42:49.528Z,100275.13
2023-05-10T21:45:51.772Z,100283.50
2023-05-10T21:48:53.915Z,100277.84
2023-05-10T21:51:56.077Z,100281.63
2023-05-10T21:54:58.257Z,100289.72
2023-05-10T21:58:00.382Z,100292.19
2023-05-10T22:01:03.197Z,100288.97
2023-05-10T22:04:05.486Z,100290.84
2023-05-10T22:07:07.667Z,100287.59
2023-05-10T22:10:10.116Z,100290.56
2023-05-10T22:13:12.244Z,100295.72
2023-05-10T22:16:14.715Z,100295.16
2023-05-10T22:19:16.946Z,100295.97
2023-05-10T22:22:19.113Z,100300.84
2023-05-10T22:25:21.224Z,100295.16
2023-05-10T22:28:23.322Z,100295.44
2023-05-10T22:31:25.600Z,100298.97
2023-05-10T22:34:27.847Z,100305.44
2023-05-10T22:37:29.976Z,100298.44
2023-05-10T22:40:32.164Z,100289.53
2023-05-10T22:43:34.293Z,100294.13
2023-05-10T22:46:37.330Z,100303.84
2023-05-10T22:49:39.555Z,100309.81
2023-05-10T22:52:41.709Z,100300.66
2023-05-10T22:55:43.834Z,100309.56
2023-05-10T22:58:45.928Z,100308.50
2023-05-10T23:01:48.989Z,100313.91
2023-05-10T23:04:51.434Z,100315.53
2023-05-10T23:07:54.352Z,100313.91
2023-05-10T23:10:56.875Z,100314.44
2023-05-10T23:13:59.067Z,100308.25
2023-05-10T23:17:01.386Z,100308.78
2023-05-10T23:20:03.758Z,100307.69
2023-05-10T23:23:05.978Z,100300.69
2023-05-10T23:26:08.853Z,100313.38
2023-05-10T23:29:10.964Z,100315.78
2023-05-10T23:32:13.188Z,100308.78
2023-05-10T23:35:15.465Z,100314.19
2023-05-10T23:38:17.765Z,100315.25
2023-05-10T23:41:19.929Z,100322.84
2023-05-10T23:44:22.111Z,100321.50
2023-05-10T23:47:24.297Z,100310.94
2023-05-10T23:50:27.082Z,100317.41
2023-05-10T23:53:29.248Z,100324.19
2023-05-10T23:56:31.431Z,100323.38
2023-05-10T23:59:33.608Z,100325.00
